sensor_id;sensor_type;location;lat;lon;timestamp;P1;durP1;ratioP1;P2;durP2;ratioP2
3922;SDS011;1976;51.694;6.256;2023-10-13T00:01:53;16.73;;;9.00;;
3922;SDS011;1976;51.694;6.256;2023-10-13T00:04:19;20.30;;;10.90;;
3922;SDS011;1976;51.694;6.256;2023-10-13T00:06:50;5.90;;;4.90;;
3922;SDS011;1976;51.694;6.256;2023-10-13T00:09:21;10.17;;;7.63;;
3922;SDS011;1976;51.694;6.256;2023-10-13T00:12:02;16.67;;;7.47;;
3922;SDS011;1976;51.694;6.256;2023-10-13T00:14:30;12.00;;;8.30;;
3922;SDS011;1976;51.694;6.256;2023-10-13T00:17:05;13.70;;;8.30;;
3922;SDS011;1976;51.694;6.256;2023-10-13T00:19:33;22.23;;;6.97;;
3922;SDS011;1976;51.694;6.256;2023-10-13T00:22:07;18.40;;;9.10;;
3922;SDS011;1976;51.694;6.256;2023-10-13T00:24:37;17.23;;;10.50;;
3922;SDS011;1976;51.694;6.256;2023-10-13T00:27:14;18.50;;;9.17;;
3922;SDS011;1976;51.694;6.256;2023-10-13T00:30:03;15.13;;;8.43;;
3922;SDS011;1976;51.694;6.256;2023-10-13T00:32:43;20.20;;;9.87;;
3922;SDS011;1976;51.694;6.256;2023-10-13T00:35:10;21.80;;;13.40;;
3922;SDS011;1976;51.694;6.256;2023-10-13T00:37:55;3.70;;;3.40;;
3922;SDS011;1976;51.694;6.256;2023-10-13T00:40:23;10.77;;;7.30;;
3922;SDS011;1976;51.694;6.256;2023-10-13T00:42:55;20.20;;;8.50;;
3922;SDS011;1976;51.694;6.256;2023-10-13T00:45:38;11.63;;;7.23;;
3922;SDS011;1976;51.694;6.256;2023-10-13T00:48:05;6.97;;;4.73;;
3922;SDS011;1976;51.694;6.256;2023-10-13T00:50:35;13.33;;;6.63;;
3922;SDS011;1976;51.694;6.256;2023-10-13T00:53:01;12.60;;;5.67;;
3922;SDS011;1976;51.694;6.256;2023-10-13T00:55:27;18.87;;;7.70;;
3922;SDS011;1976;51.694;6.256;2023-10-13T00:57:58;13.93;;;9.23;;
3922;SDS011;1976;51.694;6.256;2023-10-13T01:00:29;7.60;;;5.53;;
3922;SDS011;1976;51.694;6.256;2023-10-13T01:02:55;7.33;;;4.77;;
3922;SDS011;1976;51.694;6.256;2023-10-13T01:05:21;13.77;;;7.50;;
3922;SDS011;1976;51.694;6.256;2023-10-13T01:07:48;15.80;;;6.17;;
3922;SDS011;1976;51.694;6.256;2023-10-13T01:10:17;10.73;;;5.57;;
3922;SDS011;1976;51.694;6.256;2023-10-13T01:12:44;20.63;;;5.93;;
3922;SDS011;1976;51.694;6.256;2023-10-13T01:15:11;6.50;;;4.60;;
3922;SDS011;1976;51.694;6.256;2023-10-13T01:17:41;19.57;;;9.10;;
3922;SDS011;1976;51.694;6.256;2023-10-13T01:20:11;14.73;;;7.60;;
3922;SDS011;1976;51.694;6.256;2023-10-13T01:22:44;12.13;;;4.23;;
3922;SDS011;1976;51.694;6.256;2023-10-13T01:25:14;15.87;;;6.53;;
3922;SDS011;1976;51.694;6.256;2023-10-13T01:27:44;23.23;;;8.43;;
3922;SDS011;1976;51.694;6.256;2023-10-13T01:30:13;11.57;;;6.73;;
3922;SDS011;1976;51.694;6.256;2023-10-13T01:32:48;13.33;;;6.87;;
3922;SDS011;1976;51.694;6.256;2023-10-13T01:35:15;11.80;;;5.27;;
3922;SDS011;1976;51.694;6.256;2023-10-13T01:37:43;11.30;;;7.37;;
3922;SDS011;1976;51.694;6.256;2023-10-13T01:40:12;7.03;;;5.20;;
3922;SDS011;1976;51.694;6.256;2023-10-13T01:42:43;13.83;;;8.13;;
3922;SDS011;1976;51.694;6.256;2023-10-13T01:45:10;17.07;;;9.47;;
3922;SDS011;1976;51.694;6.256;2023-10-13T01:47:38;9.33;;;6.50;;
3922;SDS011;1976;51.694;6.256;2023-10-13T01:50:05;7.70;;;5.00;;
3922;SDS011;1976;51.694;6.256;2023-10-13T01:52:38;15.13;;;7.60;;
3922;SDS011;1976;51.694;6.256;2023-10-13T01:55:07;14.07;;;7.10;;
3922;SDS011;1976;51.694;6.256;2023-10-13T01:57:35;6.73;;;5.33;;
3922;SDS011;1976;51.694;6.256;2023-10-13T02:00:01;13.57;;;7.97;;
3922;SDS011;1976;51.694;6.256;2023-10-13T02:02:35;5.73;;;3.90;;
3922;SDS011;1976;51.694;6.256;2023-10-13T02:05:09;8.00;;;5.20;;
3922;SDS011;1976;51.694;6.256;2023-10-13T02:07:35;5.07;;;4.10;;
3922;SDS011;1976;51.694;6.256;2023-10-13T02:10:03;15.20;;;7.50;;
3922;SDS011;1976;51.694;6.256;2023-10-13T02:12:30;25.87;;;8.60;;
3922;SDS011;1976;51.694;6.256;2023-10-13T02:15:12;16.33;;;5.23;;
3922;SDS011;1976;51.694;6.256;2023-10-13T02:17:46;27.03;;;11.63;;
3922;SDS011;1976;51.694;6.256;2023-10-13T02:20:16;16.50;;;9.13;;
3922;SDS011;1976;51.694;6.256;2023-10-13T02:22:51;17.53;;;8.67;;
3922;SDS011;1976;51.694;6.256;2023-10-13T02:25:17;17.47;;;9.80;;
3922;SDS011;1976;51.694;6.256;2023-10-13T02:28:02;12.63;;;6.60;;
3922;SDS011;1976;51.694;6.256;2023-10-13T02:30:30;15.27;;;9.60;;
3922;SDS011;1976;51.694;6.256;2023-10-13T02:32:57;19.37;;;8.63;;
3922;SDS011;1976;51.694;6.256;2023-10-13T02:35:28;11.93;;;5.97;;
3922;SDS011;1976;51.694;6.256;2023-10-13T02:38:06;9.47;;;6.63;;
3922;SDS011;1976;51.694;6.256;2023-10-13T02:40:40;33.97;;;10.57;;
3922;SDS011;1976;51.694;6.256;2023-10-13T02:43:06;20.30;;;7.93;;
3922;SDS011;1976;51.694;6.256;2023-10-13T02:45:33;14.70;;;8.30;;
3922;SDS011;1976;51.694;6.256;2023-10-13T02:48:02;11.30;;;6.50;;
3922;SDS011;1976;51.694;6.256;2023-10-13T02:50:39;12.47;;;7.23;;
3922;SDS011;1976;51.694;6.256;2023-10-13T02:53:09;5.47;;;4.50;;
3922;SDS011;1976;51.694;6.256;2023-10-13T02:55:38;11.00;;;5.23;;
3922;SDS011;1976;51.694;6.256;2023-10-13T02:58:14;14.93;;;9.67;;
3922;SDS011;1976;51.694;6.256;2023-10-13T03:00:39;9.53;;;5.73;;
3922;SDS011;1976;51.694;6.256;2023-10-13T03:03:06;9.03;;;5.43;;
3922;SDS011;1976;51.694;6.256;2023-10-13T03:05:34;16.43;;;8.00;;
3922;SDS011;1976;51.694;6.256;2023-10-13T03:08:00;17.13;;;7.27;;
3922;SDS011;1976;51.694;6.256;2023-10-13T03:10:29;7.80;;;5.30;;
3922;SDS011;1976;51.694;6.256;2023-10-13T03:12:55;20.07;;;11.10;;
3922;SDS011;1976;51.694;6.256;2023-10-13T03:15:20;18.87;;;8.60;;
3922;SDS011;1976;51.694;6.256;2023-10-13T03:17:53;10.93;;;6.40;;
3922;SDS011;1976;51.694;6.256;2023-10-13T03:20:20;16.07;;;10.37;;
3922;SDS011;1976;51.694;6.256;2023-10-13T03:22:58;14.47;;;7.10;;
3922;SDS011;1976;51.694;6.256;2023-10-13T03:25:24;17.63;;;6.60;;
3922;SDS011;1976;51.694;6.256;2023-10-13T03:27:53;18.03;;;8.97;;
3922;SDS011;1976;51.694;6.256;2023-10-13T03:30:19;16.03;;;9.20;;
3922;SDS011;1976;51.694;6.256;2023-10-13T03:32:55;13.00;;;7.90;;
3922;SDS011;1976;51.694;6.256;2023-10-13T03:35:21;33.67;;;11.07;;
3922;SDS011;1976;51.694;6.256;2023-10-13T03:37:53;12.70;;;7.13;;
3922;SDS011;1976;51.694;6.256;2023-10-13T03:40:20;16.93;;;9.73;;
3922;SDS011;1976;51.694;6.256;2023-10-13T03:42:46;11.83;;;7.63;;
3922;SDS011;1976;51.694;6.256;2023-10-13T03:45:41;20.90;;;11.43;;
3922;SDS011;1976;51.694;6.256;2023-10-13T03:48:09;32.27;;;12.10;;
3922;SDS011;1976;51.694;6.256;2023-10-13T03:50:46;20.43;;;9.63;;
3922;SDS011;1976;51.694;6.256;2023-10-13T03:53:13;20.83;;;13.07;;
3922;SDS011;1976;51.694;6.256;2023-10-13T03:55:39;21.30;;;9.97;;
3922;SDS011;1976;51.694;6.256;2023-10-13T03:58:12;23.70;;;11.17;;
3922;SDS011;1976;51.694;6.256;2023-10-13T04:00:39;27.37;;;9.53;;
3922;SDS011;1976;51.694;6.256;2023-10-13T04:03:07;16.63;;;10.30;;
3922;SDS011;1976;51.694;6.256;2023-10-13T04:05:41;19.30;;;9.33;;
3922;SDS011;1976;51.694;6.256;2023-10-13T04:08:10;7.63;;;6.63;;
3922;SDS011;1976;51.694;6.256;2023-10-13T04:10:54;18.93;;;11.50;;
3922;SDS011;1976;51.694;6.256;2023-10-13T04:13:22;19.03;;;11.47;;
3922;SDS011;1976;51.694;6.256;2023-10-13T04:16:12;13.10;;;6.43;;
3922;SDS011;1976;51.694;6.256;2023-10-13T04:18:59;20.63;;;11.70;;
3922;SDS011;1976;51.694;6.256;2023-10-13T04:21:26;16.40;;;9.90;;
3922;SDS011;1976;51.694;6.256;2023-10-13T04:24:20;13.77;;;7.07;;
3922;SDS011;1976;51.694;6.256;2023-10-13T04:27:25;11.27;;;6.17;;
3922;SDS011;1976;51.694;6.256;2023-10-13T04:30:09;9.07;;;4.93;;
3922;SDS011;1976;51.694;6.256;2023-10-13T04:32:35;14.07;;;7.97;;
3922;SDS011;1976;51.694;6.256;2023-10-13T04:35:06;8.43;;;5.03;;
3922;SDS011;1976;51.694;6.256;2023-10-13T04:37:36;14.27;;;8.40;;
3922;SDS011;1976;51.694;6.256;2023-10-13T04:40:20;21.57;;;12.00;;
3922;SDS011;1976;51.694;6.256;2023-10-13T04:43:00;0.50;;;0.50;;
3922;SDS011;1976;51.694;6.256;2023-10-13T04:45:30;1.03;;;1.03;;
3922;SDS011;1976;51.694;6.256;2023-10-13T04:47:56;0.80;;;0.80;;
3922;SDS011;1976;51.694;6.256;2023-10-13T04:50:44;0.70;;;0.70;;
3922;SDS011;1976;51.694;6.256;2023-10-13T04:53:15;0.60;;;0.60;;
3922;SDS011;1976;51.694;6.256;2023-10-13T04:56:20;0.90;;;0.70;;
3922;SDS011;1976;51.694;6.256;2023-10-13T04:59:05;0.60;;;0.60;;
3922;SDS011;1976;51.694;6.256;2023-10-13T05:01:43;0.60;;;0.60;;
3922;SDS011;1976;51.694;6.256;2023-10-13T05:04:27;0.60;;;0.60;;
3922;SDS011;1976;51.694;6.256;2023-10-13T05:07:22;0.70;;;0.70;;
3922;SDS011;1976;51.694;6.256;2023-10-13T05:10:06;0.90;;;0.90;;
3922;SDS011;1976;51.694;6.256;2023-10-13T05:12:50;0.83;;;0.83;;
3922;SDS011;1976;51.694;6.256;2023-10-13T05:15:42;0.60;;;0.60;;
3922;SDS011;1976;51.694;6.256;2023-10-13T05:18:32;1.63;;;0.70;;
3922;SDS011;1976;51.694;6.256;2023-10-13T05:21:17;0.60;;;0.60;;
3922;SDS011;1976;51.694;6.256;2023-10-13T05:24:03;0.60;;;0.60;;
3922;SDS011;1976;51.694;6.256;2023-10-13T05:26:47;0.60;;;0.60;;
3922;SDS011;1976;51.694;6.256;2023-10-13T05:29:32;0.60;;;0.60;;
3922;SDS011;1976;51.694;6.256;2023-10-13T05:32:17;5.77;;;4.40;;
3922;SDS011;1976;51.694;6.256;2023-10-13T05:35:01;0.60;;;0.60;;
3922;SDS011;1976;51.694;6.256;2023-10-13T05:37:46;0.90;;;0.90;;
3922;SDS011;1976;51.694;6.256;2023-10-13T05:40:30;0.60;;;0.60;;
3922;SDS011;1976;51.694;6.256;2023-10-13T05:43:14;0.70;;;0.70;;
3922;SDS011;1976;51.694;6.256;2023-10-13T05:46:01;15.13;;;1.53;;
3922;SDS011;1976;51.694;6.256;2023-10-13T05:48:28;0.60;;;0.60;;
3922;SDS011;1976;51.694;6.256;2023-10-13T05:51:30;0.60;;;0.60;;
3922;SDS011;1976;51.694;6.256;2023-10-13T05:54:22;0.60;;;0.60;;
3922;SDS011;1976;51.694;6.256;2023-10-13T05:57:06;0.80;;;0.80;;
3922;SDS011;1976;51.694;6.256;2023-10-13T05:59:50;0.60;;;0.60;;
3922;SDS011;1976;51.694;6.256;2023-10-13T06:02:34;0.70;;;0.70;;
3922;SDS011;1976;51.694;6.256;2023-10-13T06:05:19;1.03;;;1.03;;
3922;SDS011;1976;51.694;6.256;2023-10-13T06:08:03;0.60;;;0.60;;
3922;SDS011;1976;51.694;6.256;2023-10-13T06:10:48;0.60;;;0.60;;
3922;SDS011;1976;51.694;6.256;2023-10-13T06:13:32;0.70;;;0.70;;
3922;SDS011;1976;51.694;6.256;2023-10-13T06:16:17;0.50;;;0.50;;
3922;SDS011;1976;51.694;6.256;2023-10-13T06:19:01;0.63;;;0.63;;
3922;SDS011;1976;51.694;6.256;2023-10-13T06:21:46;0.73;;;0.73;;
3922;SDS011;1976;51.694;6.256;2023-10-13T06:24:30;0.60;;;0.60;;
3922;SDS011;1976;51.694;6.256;2023-10-13T06:27:15;0.60;;;0.60;;
3922;SDS011;1976;51.694;6.256;2023-10-13T06:30:00;0.60;;;0.60;;
3922;SDS011;1976;51.694;6.256;2023-10-13T06:32:26;0.60;;;0.60;;
3922;SDS011;1976;51.694;6.256;2023-10-13T06:37:22;0.63;;;0.63;;
3922;SDS011;1976;51.694;6.256;2023-10-13T06:39:55;0.60;;;0.60;;
3922;SDS011;1976;51.694;6.256;2023-10-13T06:42:31;0.60;;;0.60;;
3922;SDS011;1976;51.694;6.256;2023-10-13T06:44:59;0.60;;;0.60;;
3922;SDS011;1976;51.694;6.256;2023-10-13T06:47:33;0.80;;;0.80;;
3922;SDS011;1976;51.694;6.256;2023-10-13T06:50:07;0.50;;;0.50;;
3922;SDS011;1976;51.694;6.256;2023-10-13T06:52:47;0.60;;;0.60;;
3922;SDS011;1976;51.694;6.256;2023-10-13T06:55:13;0.60;;;0.60;;
3922;SDS011;1976;51.694;6.256;2023-10-13T06:57:53;0.60;;;0.60;;
3922;SDS011;1976;51.694;6.256;2023-10-13T07:00:24;0.60;;;0.60;;
3922;SDS011;1976;51.694;6.256;2023-10-13T07:03:04;0.60;;;0.60;;
3922;SDS011;1976;51.694;6.256;2023-10-13T07:05:43;0.60;;;0.60;;
3922;SDS011;1976;51.694;6.256;2023-10-13T07:08:09;0.60;;;0.60;;
3922;SDS011;1976;51.694;6.256;2023-10-13T07:10:46;0.60;;;0.60;;
3922;SDS011;1976;51.694;6.256;2023-10-13T07:13:16;1.93;;;1.83;;
3922;SDS011;1976;51.694;6.256;2023-10-13T07:15:44;0.80;;;0.80;;
3922;SDS011;1976;51.694;6.256;2023-10-13T07:18:15;0.60;;;0.60;;
3922;SDS011;1976;51.694;6.256;2023-10-13T07:20:47;0.60;;;0.60;;
3922;SDS011;1976;51.694;6.256;2023-10-13T07:23:14;28.07;;;2.30;;
3922;SDS011;1976;51.694;6.256;2023-10-13T07:25:50;0.60;;;0.60;;
3922;SDS011;1976;51.694;6.256;2023-10-13T07:28:18;0.50;;;0.50;;
3922;SDS011;1976;51.694;6.256;2023-10-13T07:30:44;0.50;;;0.50;;
3922;SDS011;1976;51.694;6.256;2023-10-13T07:33:18;0.70;;;0.70;;
3922;SDS011;1976;51.694;6.256;2023-10-13T07:35:47;1.23;;;1.13;;
3922;SDS011;1976;51.694;6.256;2023-10-13T07:38:26;0.50;;;0.50;;
3922;SDS011;1976;51.694;6.256;2023-10-13T07:40:55;0.83;;;0.83;;
3922;SDS011;1976;51.694;6.256;2023-10-13T07:43:25;1.00;;;0.90;;
3922;SDS011;1976;51.694;6.256;2023-10-13T07:45:52;0.60;;;0.60;;
3922;SDS011;1976;51.694;6.256;2023-10-13T07:48:23;0.60;;;0.60;;
3922;SDS011;1976;51.694;6.256;2023-10-13T07:51:08;0.70;;;0.70;;
3922;SDS011;1976;51.694;6.256;2023-10-13T07:53:47;0.60;;;0.60;;
3922;SDS011;1976;51.694;6.256;2023-10-13T07:56:18;0.80;;;0.80;;
3922;SDS011;1976;51.694;6.256;2023-10-13T07:58:44;0.60;;;0.60;;
3922;SDS011;1976;51.694;6.256;2023-10-13T08:01:25;0.60;;;0.60;;
3922;SDS011;1976;51.694;6.256;2023-10-13T08:03:51;0.50;;;0.50;;
3922;SDS011;1976;51.694;6.256;2023-10-13T08:06:30;0.57;;;0.57;;
3922;SDS011;1976;51.694;6.256;2023-10-13T08:08:56;0.53;;;0.53;;
3922;SDS011;1976;51.694;6.256;2023-10-13T08:11:33;0.50;;;0.50;;
3922;SDS011;1976;51.694;6.256;2023-10-13T08:14:05;2.83;;;2.57;;
3922;SDS011;1976;51.694;6.256;2023-10-13T08:16:41;0.60;;;0.60;;
3922;SDS011;1976;51.694;6.256;2023-10-13T08:19:10;1.23;;;1.17;;
3922;SDS011;1976;51.694;6.256;2023-10-13T08:21:40;0.60;;;0.60;;
3922;SDS011;1976;51.694;6.256;2023-10-13T08:24:39;12.47;;;5.70;;
3922;SDS011;1976;51.694;6.256;2023-10-13T08:27:05;6.00;;;4.37;;
3922;SDS011;1976;51.694;6.256;2023-10-13T08:29:44;12.30;;;6.13;;
3922;SDS011;1976;51.694;6.256;2023-10-13T08:32:19;17.10;;;3.67;;
3922;SDS011;1976;51.694;6.256;2023-10-13T08:34:49;10.10;;;3.50;;
3922;SDS011;1976;51.694;6.256;2023-10-13T08:37:17;14.97;;;5.07;;
3922;SDS011;1976;51.694;6.256;2023-10-13T08:39:47;12.07;;;4.47;;
3922;SDS011;1976;51.694;6.256;2023-10-13T08:42:32;8.63;;;3.67;;
3922;SDS011;1976;51.694;6.256;2023-10-13T08:45:08;7.03;;;4.47;;
3922;SDS011;1976;51.694;6.256;2023-10-13T08:47:55;8.80;;;4.50;;
3922;SDS011;1976;51.694;6.256;2023-10-13T08:50:37;7.80;;;3.50;;
3922;SDS011;1976;51.694;6.256;2023-10-13T08:53:16;5.30;;;3.27;;
3922;SDS011;1976;51.694;6.256;2023-10-13T08:56:01;4.07;;;3.03;;
3922;SDS011;1976;51.694;6.256;2023-10-13T09:01:21;3.60;;;2.97;;
3922;SDS011;1976;51.694;6.256;2023-10-13T09:04:14;8.40;;;3.37;;
3922;SDS011;1976;51.694;6.256;2023-10-13T09:09:23;12.00;;;5.13;;
3922;SDS011;1976;51.694;6.256;2023-10-13T09:11:55;3.77;;;3.37;;
3922;SDS011;1976;51.694;6.256;2023-10-13T09:14:34;9.93;;;4.13;;
3922;SDS011;1976;51.694;6.256;2023-10-13T09:17:02;8.57;;;4.03;;
3922;SDS011;1976;51.694;6.256;2023-10-13T09:19:43;10.87;;;4.47;;
3922;SDS011;1976;51.694;6.256;2023-10-13T09:22:23;11.10;;;3.60;;
3922;SDS011;1976;51.694;6.256;2023-10-13T09:24:59;9.07;;;3.33;;
3922;SDS011;1976;51.694;6.256;2023-10-13T09:27:29;16.03;;;6.23;;
3922;SDS011;1976;51.694;6.256;2023-10-13T09:30:00;7.50;;;4.63;;
3922;SDS011;1976;51.694;6.256;2023-10-13T09:32:43;8.67;;;4.50;;
3922;SDS011;1976;51.694;6.256;2023-10-13T09:35:17;10.33;;;3.90;;
3922;SDS011;1976;51.694;6.256;2023-10-13T09:37:44;6.03;;;2.53;;
3922;SDS011;1976;51.694;6.256;2023-10-13T09:40:16;18.53;;;4.70;;
3922;SDS011;1976;51.694;6.256;2023-10-13T09:42:57;11.33;;;5.23;;
3922;SDS011;1976;51.694;6.256;2023-10-13T09:45:30;9.60;;;4.80;;
3922;SDS011;1976;51.694;6.256;2023-10-13T09:48:11;4.33;;;2.73;;
3922;SDS011;1976;51.694;6.256;2023-10-13T09:50:46;8.97;;;4.10;;
3922;SDS011;1976;51.694;6.256;2023-10-13T09:53:13;10.97;;;3.70;;
3922;SDS011;1976;51.694;6.256;2023-10-13T09:55:50;4.57;;;3.40;;
3922;SDS011;1976;51.694;6.256;2023-10-13T09:58:20;11.63;;;4.87;;
3922;SDS011;1976;51.694;6.256;2023-10-13T10:00:54;10.40;;;3.67;;
3922;SDS011;1976;51.694;6.256;2023-10-13T10:03:32;16.03;;;5.10;;
3922;SDS011;1976;51.694;6.256;2023-10-13T10:05:59;11.20;;;6.13;;
3922;SDS011;1976;51.694;6.256;2023-10-13T10:08:29;5.83;;;4.20;;
3922;SDS011;1976;51.694;6.256;2023-10-13T10:16:10;8.90;;;3.17;;
3922;SDS011;1976;51.694;6.256;2023-10-13T10:18:44;11.57;;;4.07;;
3922;SDS011;1976;51.694;6.256;2023-10-13T10:21:10;15.40;;;4.67;;
3922;SDS011;1976;51.694;6.256;2023-10-13T10:23:40;8.63;;;4.20;;
3922;SDS011;1976;51.694;6.256;2023-10-13T10:26:12;7.07;;;4.10;;
3922;SDS011;1976;51.694;6.256;2023-10-13T10:28:50;14.43;;;5.73;;
3922;SDS011;1976;51.694;6.256;2023-10-13T10:31:16;11.90;;;3.77;;
3922;SDS011;1976;51.694;6.256;2023-10-13T10:33:44;18.93;;;4.87;;
3922;SDS011;1976;51.694;6.256;2023-10-13T10:36:11;20.53;;;5.30;;
3922;SDS011;1976;51.694;6.256;2023-10-13T10:38:51;10.50;;;4.17;;
3922;SDS011;1976;51.694;6.256;2023-10-13T10:41:24;4.63;;;3.43;;
3922;SDS011;1976;51.694;6.256;2023-10-13T10:43:54;10.53;;;4.70;;
3922;SDS011;1976;51.694;6.256;2023-10-13T10:48:46;6.37;;;4.30;;
3922;SDS011;1976;51.694;6.256;2023-10-13T10:51:14;12.07;;;4.53;;
3922;SDS011;1976;51.694;6.256;2023-10-13T10:53:46;43.20;;;7.30;;
3922;SDS011;1976;51.694;6.256;2023-10-13T10:56:14;4.37;;;3.37;;
3922;SDS011;1976;51.694;6.256;2023-10-13T10:58:59;5.93;;;3.77;;
3922;SDS011;1976;51.694;6.256;2023-10-13T11:01:26;10.00;;;4.13;;
3922;SDS011;1976;51.694;6.256;2023-10-13T11:04:05;4.90;;;4.17;;
3922;SDS011;1976;51.694;6.256;2023-10-13T11:09:12;12.90;;;4.27;;
3922;SDS011;1976;51.694;6.256;2023-10-13T11:11:50;9.43;;;5.47;;
3922;SDS011;1976;51.694;6.256;2023-10-13T11:14:28;10.30;;;4.93;;
3922;SDS011;1976;51.694;6.256;2023-10-13T11:16:55;9.20;;;4.60;;
3922;SDS011;1976;51.694;6.256;2023-10-13T11:22:09;12.73;;;6.20;;
3922;SDS011;1976;51.694;6.256;2023-10-13T11:24:41;21.93;;;6.20;;
3922;SDS011;1976;51.694;6.256;2023-10-13T11:27:16;3.80;;;3.03;;
3922;SDS011;1976;51.694;6.256;2023-10-13T11:29:46;20.57;;;3.57;;
3922;SDS011;1976;51.694;6.256;2023-10-13T11:32:17;6.60;;;3.77;;
3922;SDS011;1976;51.694;6.256;2023-10-13T11:34:46;4.67;;;3.47;;
3922;SDS011;1976;51.694;6.256;2023-10-13T11:37:19;10.97;;;4.50;;
3922;SDS011;1976;51.694;6.256;2023-10-13T11:40:02;9.23;;;4.27;;
3922;SDS011;1976;51.694;6.256;2023-10-13T11:42:34;14.33;;;5.17;;
3922;SDS011;1976;51.694;6.256;2023-10-13T11:45:01;5.27;;;3.97;;
3922;SDS011;1976;51.694;6.256;2023-10-13T11:47:46;5.87;;;4.40;;
3922;SDS011;1976;51.694;6.256;2023-10-13T11:50:24;3.80;;;2.40;;
3922;SDS011;1976;51.694;6.256;2023-10-13T11:53:00;8.07;;;4.67;;
3922;SDS011;1976;51.694;6.256;2023-10-13T11:55:26;10.83;;;3.63;;
3922;SDS011;1976;51.694;6.256;2023-10-13T11:57:52;13.80;;;4.43;;
3922;SDS011;1976;51.694;6.256;2023-10-13T12:00:18;12.00;;;4.10;;
3922;SDS011;1976;51.694;6.256;2023-10-13T12:03:03;8.40;;;3.60;;
3922;SDS011;1976;51.694;6.256;2023-10-13T12:05:48;8.53;;;3.60;;
3922;SDS011;1976;51.694;6.256;2023-10-13T12:08:24;7.00;;;3.60;;
3922;SDS011;1976;51.694;6.256;2023-10-13T12:10:58;13.73;;;4.67;;
3922;SDS011;1976;51.694;6.256;2023-10-13T12:13:46;8.73;;;4.40;;
3922;SDS011;1976;51.694;6.256;2023-10-13T12:16:12;9.77;;;3.43;;
3922;SDS011;1976;51.694;6.256;2023-10-13T12:18:38;9.60;;;4.40;;
3922;SDS011;1976;51.694;6.256;2023-10-13T12:21:08;10.93;;;4.73;;
3922;SDS011;1976;51.694;6.256;2023-10-13T12:23:37;16.40;;;5.40;;
3922;SDS011;1976;51.694;6.256;2023-10-13T12:26:03;24.67;;;5.33;;
3922;SDS011;1976;51.694;6.256;2023-10-13T12:28:44;28.43;;;5.70;;
3922;SDS011;1976;51.694;6.256;2023-10-13T12:31:16;4.17;;;3.37;;
3922;SDS011;1976;51.694;6.256;2023-10-13T12:33:42;7.87;;;4.07;;
3922;SDS011;1976;51.694;6.256;2023-10-13T12:36:12;17.97;;;7.10;;
3922;SDS011;1976;51.694;6.256;2023-10-13T12:38:38;20.83;;;3.00;;
3922;SDS011;1976;51.694;6.256;2023-10-13T12:41:11;9.93;;;4.03;;
3922;SDS011;1976;51.694;6.256;2023-10-13T12:43:55;15.60;;;3.87;;
3922;SDS011;1976;51.694;6.256;2023-10-13T12:46:40;6.17;;;4.30;;
3922;SDS011;1976;51.694;6.256;2023-10-13T12:49:25;9.57;;;4.77;;
3922;SDS011;1976;51.694;6.256;2023-10-13T12:52:10;13.80;;;5.00;;
3922;SDS011;1976;51.694;6.256;2023-10-13T12:54:50;13.00;;;4.67;;
3922;SDS011;1976;51.694;6.256;2023-10-13T12:57:22;16.80;;;4.37;;
3922;SDS011;1976;51.694;6.256;2023-10-13T12:59:49;11.07;;;4.40;;
3922;SDS011;1976;51.694;6.256;2023-10-13T13:02:18;5.73;;;3.80;;
3922;SDS011;1976;51.694;6.256;2023-10-13T13:04:45;14.93;;;6.10;;
3922;SDS011;1976;51.694;6.256;2023-10-13T13:07:16;9.70;;;3.87;;
3922;SDS011;1976;51.694;6.256;2023-10-13T13:09:42;17.50;;;5.27;;
3922;SDS011;1976;51.694;6.256;2023-10-13T13:12:08;9.73;;;3.80;;
3922;SDS011;1976;51.694;6.256;2023-10-13T13:14:37;9.23;;;3.57;;
3922;SDS011;1976;51.694;6.256;2023-10-13T13:17:06;14.30;;;4.43;;
3922;SDS011;1976;51.694;6.256;2023-10-13T13:19:35;13.43;;;3.83;;
3922;SDS011;1976;51.694;6.256;2023-10-13T13:22:04;7.57;;;3.30;;
3922;SDS011;1976;51.694;6.256;2023-10-13T13:24:30;7.97;;;4.47;;
3922;SDS011;1976;51.694;6.256;2023-10-13T13:26:57;18.43;;;5.10;;
3922;SDS011;1976;51.694;6.256;2023-10-13T13:29:29;16.83;;;4.70;;
3922;SDS011;1976;51.694;6.256;2023-10-13T13:31:56;11.63;;;4.70;;
3922;SDS011;1976;51.694;6.256;2023-10-13T13:34:22;14.40;;;4.10;;
3922;SDS011;1976;51.694;6.256;2023-10-13T13:36:48;30.70;;;4.10;;
3922;SDS011;1976;51.694;6.256;2023-10-13T13:39:20;8.63;;;4.40;;
3922;SDS011;1976;51.694;6.256;2023-10-13T13:41:54;3.80;;;3.00;;
3922;SDS011;1976;51.694;6.256;2023-10-13T13:44:22;10.40;;;4.50;;
3922;SDS011;1976;51.694;6.256;2023-10-13T13:46:54;7.20;;;3.70;;
3922;SDS011;1976;51.694;6.256;2023-10-13T13:49:21;10.87;;;4.53;;
3922;SDS011;1976;51.694;6.256;2023-10-13T13:51:54;10.23;;;4.47;;
3922;SDS011;1976;51.694;6.256;2023-10-13T13:54:20;10.87;;;3.67;;
3922;SDS011;1976;51.694;6.256;2023-10-13T13:56:47;6.83;;;4.40;;
3922;SDS011;1976;51.694;6.256;2023-10-13T13:59:13;20.47;;;3.97;;
3922;SDS011;1976;51.694;6.256;2023-10-13T14:01:44;2.80;;;2.50;;
3922;SDS011;1976;51.694;6.256;2023-10-13T14:04:10;7.93;;;2.93;;
3922;SDS011;1976;51.694;6.256;2023-10-13T14:06:39;4.20;;;3.00;;
3922;SDS011;1976;51.694;6.256;2023-10-13T14:09:05;12.97;;;4.40;;
3922;SDS011;1976;51.694;6.256;2023-10-13T14:11:40;10.10;;;3.13;;
3922;SDS011;1976;51.694;6.256;2023-10-13T14:16:50;5.60;;;2.73;;
3922;SDS011;1976;51.694;6.256;2023-10-13T14:19:17;8.23;;;3.33;;
3922;SDS011;1976;51.694;6.256;2023-10-13T14:21:52;22.10;;;5.50;;
3922;SDS011;1976;51.694;6.256;2023-10-13T14:24:21;12.10;;;5.13;;
3922;SDS011;1976;51.694;6.256;2023-10-13T14:26:54;14.43;;;3.37;;
3922;SDS011;1976;51.694;6.256;2023-10-13T14:29:21;12.10;;;2.90;;
3922;SDS011;1976;51.694;6.256;2023-10-13T14:31:51;6.27;;;2.50;;
3922;SDS011;1976;51.694;6.256;2023-10-13T14:34:17;11.17;;;4.13;;
3922;SDS011;1976;51.694;6.256;2023-10-13T14:36:46;9.23;;;3.23;;
3922;SDS011;1976;51.694;6.256;2023-10-13T14:39:13;8.00;;;3.70;;
3922;SDS011;1976;51.694;6.256;2023-10-13T14:41:39;15.10;;;4.30;;
3922;SDS011;1976;51.694;6.256;2023-10-13T14:44:05;9.60;;;3.57;;
3922;SDS011;1976;51.694;6.256;2023-10-13T14:46:31;29.20;;;4.23;;
3922;SDS011;1976;51.694;6.256;2023-10-13T14:49:00;8.00;;;4.10;;
3922;SDS011;1976;51.694;6.256;2023-10-13T14:51:27;5.00;;;2.90;;
3922;SDS011;1976;51.694;6.256;2023-10-13T14:53:54;16.87;;;4.27;;
3922;SDS011;1976;51.694;6.256;2023-10-13T14:56:24;15.23;;;2.77;;
3922;SDS011;1976;51.694;6.256;2023-10-13T14:58:51;9.70;;;3.40;;
3922;SDS011;1976;51.694;6.256;2023-10-13T15:01:18;7.33;;;3.93;;
3922;SDS011;1976;51.694;6.256;2023-10-13T15:03:44;15.27;;;5.10;;
3922;SDS011;1976;51.694;6.256;2023-10-13T15:06:17;6.80;;;3.70;;
3922;SDS011;1976;51.694;6.256;2023-10-13T15:08:43;14.83;;;4.10;;
3922;SDS011;1976;51.694;6.256;2023-10-13T15:11:11;3.90;;;1.90;;
3922;SDS011;1976;51.694;6.256;2023-10-13T15:13:38;13.83;;;3.70;;
3922;SDS011;1976;51.694;6.256;2023-10-13T15:16:12;6.13;;;3.73;;
3922;SDS011;1976;51.694;6.256;2023-10-13T15:18:39;9.53;;;3.80;;
3922;SDS011;1976;51.694;6.256;2023-10-13T15:21:05;19.67;;;6.47;;
3922;SDS011;1976;51.694;6.256;2023-10-13T15:23:33;11.93;;;4.30;;
3922;SDS011;1976;51.694;6.256;2023-10-13T15:26:07;6.37;;;4.27;;
3922;SDS011;1976;51.694;6.256;2023-10-13T15:28:34;9.83;;;4.07;;
3922;SDS011;1976;51.694;6.256;2023-10-13T15:31:02;11.97;;;5.17;;
3922;SDS011;1976;51.694;6.256;2023-10-13T15:33:49;22.47;;;4.03;;
3922;SDS011;1976;51.694;6.256;2023-10-13T15:36:17;16.50;;;3.60;;
3922;SDS011;1976;51.694;6.256;2023-10-13T15:38:46;1.43;;;1.30;;
3922;SDS011;1976;51.694;6.256;2023-10-13T15:41:12;7.17;;;3.57;;
3922;SDS011;1976;51.694;6.256;2023-10-13T15:43:38;12.30;;;4.10;;
3922;SDS011;1976;51.694;6.256;2023-10-13T15:46:15;14.47;;;3.73;;
3922;SDS011;1976;51.694;6.256;2023-10-13T15:48:41;17.40;;;4.40;;
3922;SDS011;1976;51.694;6.256;2023-10-13T15:51:10;24.63;;;4.43;;
3922;SDS011;1976;51.694;6.256;2023-10-13T15:53:40;4.97;;;3.87;;
3922;SDS011;1976;51.694;6.256;2023-10-13T15:56:08;16.20;;;3.23;;
3922;SDS011;1976;51.694;6.256;2023-10-13T15:58:46;23.27;;;6.30;;
3922;SDS011;1976;51.694;6.256;2023-10-13T16:01:12;4.90;;;3.27;;
3922;SDS011;1976;51.694;6.256;2023-10-13T16:03:45;8.23;;;4.20;;
3922;SDS011;1976;51.694;6.256;2023-10-13T16:06:17;6.53;;;2.90;;
3922;SDS011;1976;51.694;6.256;2023-10-13T16:08:43;26.10;;;4.63;;